sensor_id;sensor_type;location;lat;lon;timestamp;P1;durP1;ratioP1;P2;durP2;ratioP2
53959;SDS011;39866;48.638;-2.020;2022-11-20T00:02:24;9.07;;;3.63;;
53959;SDS011;39866;48.638;-2.020;2022-11-20T00:04:49;9.27;;;4.15;;
53959;SDS011;39866;48.638;-2.020;2022-11-20T00:07:14;8.98;;;3.20;;
53959;SDS011;39866;48.638;-2.020;2022-11-20T00:09:40;7.50;;;3.33;;
53959;SDS011;39866;48.638;-2.020;2022-11-20T00:12:05;6.38;;;3.65;;
53959;SDS011;39866;48.638;-2.020;2022-11-20T00:14:31;7.95;;;3.58;;
53959;SDS011;39866;48.638;-2.020;2022-11-20T00:16:56;7.85;;;3.97;;
53959;SDS011;39866;48.638;-2.020;2022-11-20T00:19:21;6.22;;;3.78;;
53959;SDS011;39866;48.638;-2.020;2022-11-20T00:21:47;9.23;;;3.72;;
53959;SDS011;39866;48.638;-2.020;2022-11-20T00:24:12;7.40;;;3.50;;
53959;SDS011;39866;48.638;-2.020;2022-11-20T00:26:38;7.30;;;4.00;;
53959;SDS011;39866;48.638;-2.020;2022-11-20T00:29:03;7.82;;;3.60;;
53959;SDS011;39866;48.638;-2.020;2022-11-20T00:31:29;10.52;;;4.07;;
53959;SDS011;39866;48.638;-2.020;2022-11-20T00:33:55;9.68;;;4.10;;
53959;SDS011;39866;48.638;-2.020;2022-11-20T00:36:25;8.73;;;3.83;;
53959;SDS011;39866;48.638;-2.020;2022-11-20T00:38:52;9.90;;;3.53;;
53959;SDS011;39866;48.638;-2.020;2022-11-20T00:41:18;10.63;;;4.63;;
53959;SDS011;39866;48.638;-2.020;2022-11-20T00:43:44;9.95;;;4.00;;
53959;SDS011;39866;48.638;-2.020;2022-11-20T00:46:13;10.77;;;4.18;;
53959;SDS011;39866;48.638;-2.020;2022-11-20T00:48:43;8.45;;;4.10;;
53959;SDS011;39866;48.638;-2.020;2022-11-20T00:51:09;7.90;;;3.95;;
53959;SDS011;39866;48.638;-2.020;2022-11-20T00:53:36;6.78;;;3.42;;
53959;SDS011;39866;48.638;-2.020;2022-11-20T00:56:03;8.98;;;4.05;;
53959;SDS011;39866;48.638;-2.020;2022-11-20T00:58:31;9.77;;;3.90;;
53959;SDS011;39866;48.638;-2.020;2022-11-20T01:01:02;9.68;;;3.75;;
53959;SDS011;39866;48.638;-2.020;2022-11-20T01:03:32;9.95;;;4.10;;
53959;SDS011;39866;48.638;-2.020;2022-11-20T01:06:03;9.30;;;4.30;;
53959;SDS011;39866;48.638;-2.020;2022-11-20T01:08:33;9.38;;;4.15;;
53959;SDS011;39866;48.638;-2.020;2022-11-20T01:11:34;7.60;;;3.88;;
53959;SDS011;39866;48.638;-2.020;2022-11-20T01:13:54;7.70;;;3.55;;
53959;SDS011;39866;48.638;-2.020;2022-11-20T01:16:25;5.70;;;3.70;;
53959;SDS011;39866;48.638;-2.020;2022-11-20T01:18:52;9.27;;;3.63;;
53959;SDS011;39866;48.638;-2.020;2022-11-20T01:21:23;8.52;;;3.90;;
53959;SDS011;39866;48.638;-2.020;2022-11-20T01:23:59;7.80;;;4.10;;
53959;SDS011;39866;48.638;-2.020;2022-11-20T01:26:26;7.72;;;3.78;;
53959;SDS011;39866;48.638;-2.020;2022-11-20T01:28:53;8.20;;;3.92;;
53959;SDS011;39866;48.638;-2.020;2022-11-20T01:31:21;8.02;;;3.92;;
53959;SDS011;39866;48.638;-2.020;2022-11-20T01:33:49;7.30;;;3.33;;
53959;SDS011;39866;48.638;-2.020;2022-11-20T01:36:17;7.75;;;3.70;;
53959;SDS011;39866;48.638;-2.020;2022-11-20T01:38:43;10.05;;;3.40;;
53959;SDS011;39866;48.638;-2.020;2022-11-20T01:41:09;8.18;;;3.20;;
53959;SDS011;39866;48.638;-2.020;2022-11-20T01:43:56;6.45;;;3.55;;
53959;SDS011;39866;48.638;-2.020;2022-11-20T01:46:22;5.18;;;3.25;;
53959;SDS011;39866;48.638;-2.020;2022-11-20T01:48:49;8.30;;;3.65;;
53959;SDS011;39866;48.638;-2.020;2022-11-20T01:51:42;6.97;;;3.40;;
53959;SDS011;39866;48.638;-2.020;2022-11-20T01:54:23;6.38;;;3.10;;
53959;SDS011;39866;48.638;-2.020;2022-11-20T01:56:54;5.63;;;3.00;;
53959;SDS011;39866;48.638;-2.020;2022-11-20T01:59:22;6.15;;;2.72;;
53959;SDS011;39866;48.638;-2.020;2022-11-20T02:01:50;5.72;;;2.80;;
53959;SDS011;39866;48.638;-2.020;2022-11-20T02:04:16;6.22;;;3.00;;
53959;SDS011;39866;48.638;-2.020;2022-11-20T02:09:13;9.98;;;3.50;;
53959;SDS011;39866;48.638;-2.020;2022-11-20T02:11:39;8.23;;;3.28;;
53959;SDS011;39866;48.638;-2.020;2022-11-20T02:14:04;7.03;;;3.50;;
53959;SDS011;39866;48.638;-2.020;2022-11-20T02:16:37;5.88;;;3.58;;
53959;SDS011;39866;48.638;-2.020;2022-11-20T02:19:06;9.23;;;3.47;;
53959;SDS011;39866;48.638;-2.020;2022-11-20T02:24:06;6.78;;;3.28;;
53959;SDS011;39866;48.638;-2.020;2022-11-20T02:26:38;7.53;;;3.25;;
53959;SDS011;39866;48.638;-2.020;2022-11-20T02:29:07;7.13;;;3.50;;
53959;SDS011;39866;48.638;-2.020;2022-11-20T02:31:35;6.25;;;3.22;;
53959;SDS011;39866;48.638;-2.020;2022-11-20T02:34:01;4.82;;;2.60;;
53959;SDS011;39866;48.638;-2.020;2022-11-20T02:36:27;7.40;;;3.20;;
53959;SDS011;39866;48.638;-2.020;2022-11-20T02:38:55;6.60;;;2.75;;
53959;SDS011;39866;48.638;-2.020;2022-11-20T02:41:21;6.50;;;2.90;;
53959;SDS011;39866;48.638;-2.020;2022-11-20T02:43:47;8.07;;;3.63;;
53959;SDS011;39866;48.638;-2.020;2022-11-20T02:46:12;8.80;;;2.88;;
53959;SDS011;39866;48.638;-2.020;2022-11-20T02:48:37;5.82;;;2.85;;
53959;SDS011;39866;48.638;-2.020;2022-11-20T02:51:03;6.75;;;2.60;;
53959;SDS011;39866;48.638;-2.020;2022-11-20T02:53:28;6.53;;;2.53;;
53959;SDS011;39866;48.638;-2.020;2022-11-20T02:55:53;5.95;;;2.50;;
53959;SDS011;39866;48.638;-2.020;2022-11-20T02:58:19;7.40;;;2.55;;
53959;SDS011;39866;48.638;-2.020;2022-11-20T03:00:44;6.22;;;2.60;;
53959;SDS011;39866;48.638;-2.020;2022-11-20T03:03:09;5.50;;;2.30;;
53959;SDS011;39866;48.638;-2.020;2022-11-20T03:05:35;8.88;;;2.78;;
53959;SDS011;39866;48.638;-2.020;2022-11-20T03:08:00;6.35;;;2.92;;
53959;SDS011;39866;48.638;-2.020;2022-11-20T03:10:25;4.93;;;2.20;;
53959;SDS011;39866;48.638;-2.020;2022-11-20T03:12:54;5.15;;;2.60;;
53959;SDS011;39866;48.638;-2.020;2022-11-20T03:15:20;6.03;;;2.75;;
53959;SDS011;39866;48.638;-2.020;2022-11-20T03:17:46;3.97;;;2.47;;
53959;SDS011;39866;48.638;-2.020;2022-11-20T03:20:11;4.82;;;2.55;;
53959;SDS011;39866;48.638;-2.020;2022-11-20T03:22:37;8.05;;;2.50;;
53959;SDS011;39866;48.638;-2.020;2022-11-20T03:25:02;8.25;;;3.20;;
53959;SDS011;39866;48.638;-2.020;2022-11-20T03:27:31;6.53;;;2.53;;
53959;SDS011;39866;48.638;-2.020;2022-11-20T03:29:57;4.38;;;2.60;;
53959;SDS011;39866;48.638;-2.020;2022-11-20T03:32:22;6.80;;;2.70;;
53959;SDS011;39866;48.638;-2.020;2022-11-20T03:34:48;7.13;;;3.30;;
53959;SDS011;39866;48.638;-2.020;2022-11-20T03:37:13;6.60;;;2.72;;
53959;SDS011;39866;48.638;-2.020;2022-11-20T03:39:38;5.47;;;2.88;;
53959;SDS011;39866;48.638;-2.020;2022-11-20T03:42:04;5.28;;;2.70;;
53959;SDS011;39866;48.638;-2.020;2022-11-20T03:44:49;7.35;;;2.80;;
53959;SDS011;39866;48.638;-2.020;2022-11-20T03:47:14;6.80;;;3.08;;
53959;SDS011;39866;48.638;-2.020;2022-11-20T03:49:40;8.85;;;3.38;;
53959;SDS011;39866;48.638;-2.020;2022-11-20T03:52:05;6.32;;;3.13;;
53959;SDS011;39866;48.638;-2.020;2022-11-20T03:54:30;6.10;;;3.17;;
53959;SDS011;39866;48.638;-2.020;2022-11-20T03:56:55;6.75;;;3.15;;
53959;SDS011;39866;48.638;-2.020;2022-11-20T03:59:21;5.82;;;3.33;;
53959;SDS011;39866;48.638;-2.020;2022-11-20T04:01:46;7.35;;;3.20;;
53959;SDS011;39866;48.638;-2.020;2022-11-20T04:04:12;6.97;;;3.15;;
53959;SDS011;39866;48.638;-2.020;2022-11-20T04:06:37;7.40;;;3.05;;
53959;SDS011;39866;48.638;-2.020;2022-11-20T04:09:03;8.60;;;3.13;;
53959;SDS011;39866;48.638;-2.020;2022-11-20T04:11:30;6.97;;;2.72;;
53959;SDS011;39866;48.638;-2.020;2022-11-20T04:13:58;6.65;;;2.78;;
53959;SDS011;39866;48.638;-2.020;2022-11-20T04:16:31;8.02;;;2.95;;
53959;SDS011;39866;48.638;-2.020;2022-11-20T04:18:59;6.40;;;3.05;;
53959;SDS011;39866;48.638;-2.020;2022-11-20T04:21:25;5.45;;;2.75;;
53959;SDS011;39866;48.638;-2.020;2022-11-20T04:23:52;6.57;;;2.67;;
53959;SDS011;39866;48.638;-2.020;2022-11-20T04:26:19;6.35;;;2.83;;
53959;SDS011;39866;48.638;-2.020;2022-11-20T04:28:44;6.72;;;2.75;;
53959;SDS011;39866;48.638;-2.020;2022-11-20T04:31:14;4.60;;;2.67;;
53959;SDS011;39866;48.638;-2.020;2022-11-20T04:33:41;6.32;;;3.03;;
53959;SDS011;39866;48.638;-2.020;2022-11-20T04:36:09;6.50;;;3.30;;
53959;SDS011;39866;48.638;-2.020;2022-11-20T04:38:37;5.35;;;2.55;;
53959;SDS011;39866;48.638;-2.020;2022-11-20T04:41:03;9.27;;;2.90;;
53959;SDS011;39866;48.638;-2.020;2022-11-20T04:43:30;6.32;;;2.45;;
53959;SDS011;39866;48.638;-2.020;2022-11-20T04:45:57;4.40;;;2.58;;
53959;SDS011;39866;48.638;-2.020;2022-11-20T04:48:23;4.22;;;2.20;;
53959;SDS011;39866;48.638;-2.020;2022-11-20T04:50:49;4.70;;;2.30;;
53959;SDS011;39866;48.638;-2.020;2022-11-20T04:53:15;4.70;;;2.40;;
53959;SDS011;39866;48.638;-2.020;2022-11-20T04:55:40;5.78;;;2.00;;
53959;SDS011;39866;48.638;-2.020;2022-11-20T04:58:05;3.67;;;2.10;;
53959;SDS011;39866;48.638;-2.020;2022-11-20T05:00:32;2.22;;;1.50;;
53959;SDS011;39866;48.638;-2.020;2022-11-20T05:02:57;3.63;;;2.08;;
53959;SDS011;39866;48.638;-2.020;2022-11-20T05:05:22;3.35;;;1.67;;
53959;SDS011;39866;48.638;-2.020;2022-11-20T05:07:48;3.47;;;1.50;;
53959;SDS011;39866;48.638;-2.020;2022-11-20T05:10:13;2.38;;;1.50;;
53959;SDS011;39866;48.638;-2.020;2022-11-20T05:12:39;2.83;;;1.55;;
53959;SDS011;39866;48.638;-2.020;2022-11-20T05:15:04;3.85;;;1.65;;
53959;SDS011;39866;48.638;-2.020;2022-11-20T05:17:30;3.05;;;1.23;;
53959;SDS011;39866;48.638;-2.020;2022-11-20T05:19:55;2.20;;;1.20;;
53959;SDS011;39866;48.638;-2.020;2022-11-20T05:22:21;2.38;;;1.30;;
53959;SDS011;39866;48.638;-2.020;2022-11-20T05:24:46;2.53;;;1.20;;
53959;SDS011;39866;48.638;-2.020;2022-11-20T05:27:12;1.77;;;1.20;;
53959;SDS011;39866;48.638;-2.020;2022-11-20T05:29:37;2.03;;;1.08;;
53959;SDS011;39866;48.638;-2.020;2022-11-20T05:32:02;2.25;;;0.90;;
53959;SDS011;39866;48.638;-2.020;2022-11-20T05:34:28;2.20;;;1.08;;
53959;SDS011;39866;48.638;-2.020;2022-11-20T05:36:53;1.25;;;0.80;;
53959;SDS011;39866;48.638;-2.020;2022-11-20T05:39:18;3.25;;;0.90;;
53959;SDS011;39866;48.638;-2.020;2022-11-20T05:41:44;1.65;;;0.68;;
53959;SDS011;39866;48.638;-2.020;2022-11-20T05:44:10;1.65;;;0.90;;
53959;SDS011;39866;48.638;-2.020;2022-11-20T05:46:35;3.42;;;1.05;;
53959;SDS011;39866;48.638;-2.020;2022-11-20T05:49:01;4.80;;;1.25;;
53959;SDS011;39866;48.638;-2.020;2022-11-20T05:51:26;4.20;;;0.95;;
53959;SDS011;39866;48.638;-2.020;2022-11-20T05:53:52;3.97;;;1.05;;
53959;SDS011;39866;48.638;-2.020;2022-11-20T05:56:18;5.47;;;1.10;;
53959;SDS011;39866;48.638;-2.020;2022-11-20T05:58:45;4.47;;;1.20;;
53959;SDS011;39866;48.638;-2.020;2022-11-20T06:01:15;3.13;;;0.88;;
53959;SDS011;39866;48.638;-2.020;2022-11-20T06:03:41;3.28;;;1.20;;
53959;SDS011;39866;48.638;-2.020;2022-11-20T06:06:08;4.88;;;1.00;;
53959;SDS011;39866;48.638;-2.020;2022-11-20T06:08:34;6.60;;;1.20;;
53959;SDS011;39866;48.638;-2.020;2022-11-20T06:11:07;7.10;;;1.48;;
53959;SDS011;39866;48.638;-2.020;2022-11-20T06:13:33;7.63;;;1.70;;
53959;SDS011;39866;48.638;-2.020;2022-11-20T06:16:00;9.35;;;1.40;;
53959;SDS011;39866;48.638;-2.020;2022-11-20T06:18:26;11.38;;;1.73;;
53959;SDS011;39866;48.638;-2.020;2022-11-20T06:20:59;10.07;;;1.73;;
53959;SDS011;39866;48.638;-2.020;2022-11-20T06:23:27;12.90;;;1.83;;
53959;SDS011;39866;48.638;-2.020;2022-11-20T06:25:53;16.02;;;3.20;;
53959;SDS011;39866;48.638;-2.020;2022-11-20T06:28:18;12.35;;;2.50;;
53959;SDS011;39866;48.638;-2.020;2022-11-20T06:30:44;26.13;;;4.53;;
53959;SDS011;39866;48.638;-2.020;2022-11-20T06:33:10;30.35;;;4.93;;
53959;SDS011;39866;48.638;-2.020;2022-11-20T06:35:36;26.70;;;3.65;;
53959;SDS011;39866;48.638;-2.020;2022-11-20T06:38:01;25.55;;;4.00;;
53959;SDS011;39866;48.638;-2.020;2022-11-20T06:40:26;24.50;;;4.30;;
53959;SDS011;39866;48.638;-2.020;2022-11-20T06:42:53;24.58;;;4.57;;
53959;SDS011;39866;48.638;-2.020;2022-11-20T06:45:19;26.45;;;5.32;;
53959;SDS011;39866;48.638;-2.020;2022-11-20T06:47:45;27.65;;;4.93;;
53959;SDS011;39866;48.638;-2.020;2022-11-20T06:50:10;28.40;;;5.03;;
53959;SDS011;39866;48.638;-2.020;2022-11-20T06:52:35;28.92;;;4.65;;
53959;SDS011;39866;48.638;-2.020;2022-11-20T06:55:01;30.50;;;4.40;;
53959;SDS011;39866;48.638;-2.020;2022-11-20T06:57:26;21.98;;;4.20;;
53959;SDS011;39866;48.638;-2.020;2022-11-20T06:59:51;23.83;;;4.70;;
53959;SDS011;39866;48.638;-2.020;2022-11-20T07:02:16;28.70;;;5.68;;
53959;SDS011;39866;48.638;-2.020;2022-11-20T07:04:42;28.20;;;4.70;;
53959;SDS011;39866;48.638;-2.020;2022-11-20T07:07:08;23.67;;;4.90;;
53959;SDS011;39866;48.638;-2.020;2022-11-20T07:09:33;28.42;;;4.25;;
53959;SDS011;39866;48.638;-2.020;2022-11-20T07:11:59;26.95;;;4.65;;
53959;SDS011;39866;48.638;-2.020;2022-11-20T07:14:24;26.63;;;5.03;;
53959;SDS011;39866;48.638;-2.020;2022-11-20T07:16:49;27.92;;;4.97;;
53959;SDS011;39866;48.638;-2.020;2022-11-20T07:19:15;25.23;;;4.85;;
53959;SDS011;39866;48.638;-2.020;2022-11-20T07:21:40;24.40;;;4.88;;
53959;SDS011;39866;48.638;-2.020;2022-11-20T07:24:05;31.38;;;5.40;;
53959;SDS011;39866;48.638;-2.020;2022-11-20T07:26:31;26.20;;;5.28;;
53959;SDS011;39866;48.638;-2.020;2022-11-20T07:28:56;28.90;;;4.18;;
53959;SDS011;39866;48.638;-2.020;2022-11-20T07:31:21;33.60;;;5.05;;
53959;SDS011;39866;48.638;-2.020;2022-11-20T07:33:47;24.20;;;5.43;;
53959;SDS011;39866;48.638;-2.020;2022-11-20T07:36:12;27.42;;;5.32;;
53959;SDS011;39866;48.638;-2.020;2022-11-20T07:38:37;29.17;;;4.95;;
53959;SDS011;39866;48.638;-2.020;2022-11-20T07:41:03;33.88;;;5.63;;
53959;SDS011;39866;48.638;-2.020;2022-11-20T07:43:29;27.10;;;5.20;;
53959;SDS011;39866;48.638;-2.020;2022-11-20T07:45:55;26.90;;;5.35;;
53959;SDS011;39866;48.638;-2.020;2022-11-20T07:48:21;31.42;;;5.97;;
53959;SDS011;39866;48.638;-2.020;2022-11-20T07:50:46;35.13;;;6.50;;
53959;SDS011;39866;48.638;-2.020;2022-11-20T07:53:12;25.20;;;4.70;;
53959;SDS011;39866;48.638;-2.020;2022-11-20T07:55:38;33.35;;;5.72;;
53959;SDS011;39866;48.638;-2.020;2022-11-20T07:58:04;30.77;;;5.50;;
53959;SDS011;39866;48.638;-2.020;2022-11-20T08:00:29;38.58;;;6.30;;
53959;SDS011;39866;48.638;-2.020;2022-11-20T08:02:55;35.60;;;6.80;;
53959;SDS011;39866;48.638;-2.020;2022-11-20T08:05:21;30.95;;;5.50;;
53959;SDS011;39866;48.638;-2.020;2022-11-20T08:07:46;31.23;;;5.65;;
53959;SDS011;39866;48.638;-2.020;2022-11-20T08:10:13;30.75;;;5.45;;
53959;SDS011;39866;48.638;-2.020;2022-11-20T08:12:44;28.23;;;4.85;;
53959;SDS011;39866;48.638;-2.020;2022-11-20T08:15:29;29.00;;;5.35;;
53959;SDS011;39866;48.638;-2.020;2022-11-20T08:18:04;34.22;;;5.55;;
53959;SDS011;39866;48.638;-2.020;2022-11-20T08:20:31;32.33;;;5.45;;
53959;SDS011;39866;48.638;-2.020;2022-11-20T08:22:58;34.67;;;5.95;;
53959;SDS011;39866;48.638;-2.020;2022-11-20T08:25:28;27.13;;;5.65;;
53959;SDS011;39866;48.638;-2.020;2022-11-20T08:27:56;30.00;;;5.43;;
53959;SDS011;39866;48.638;-2.020;2022-11-20T08:30:22;33.05;;;6.20;;
53959;SDS011;39866;48.638;-2.020;2022-11-20T08:32:48;26.13;;;5.82;;
53959;SDS011;39866;48.638;-2.020;2022-11-20T08:35:13;33.60;;;6.00;;
53959;SDS011;39866;48.638;-2.020;2022-11-20T08:37:39;29.25;;;5.90;;
53959;SDS011;39866;48.638;-2.020;2022-11-20T08:40:06;33.75;;;6.05;;
53959;SDS011;39866;48.638;-2.020;2022-11-20T08:42:36;29.10;;;6.30;;
53959;SDS011;39866;48.638;-2.020;2022-11-20T08:45:01;31.50;;;6.22;;
53959;SDS011;39866;48.638;-2.020;2022-11-20T08:47:26;29.60;;;6.15;;
53959;SDS011;39866;48.638;-2.020;2022-11-20T08:49:52;33.75;;;6.50;;
53959;SDS011;39866;48.638;-2.020;2022-11-20T08:52:17;38.15;;;6.00;;
53959;SDS011;39866;48.638;-2.020;2022-11-20T08:54:42;32.65;;;6.22;;
53959;SDS011;39866;48.638;-2.020;2022-11-20T08:57:08;35.00;;;6.30;;
53959;SDS011;39866;48.638;-2.020;2022-11-20T08:59:33;44.80;;;6.15;;
53959;SDS011;39866;48.638;-2.020;2022-11-20T09:01:58;33.50;;;6.65;;
53959;SDS011;39866;48.638;-2.020;2022-11-20T09:04:24;30.23;;;6.05;;
53959;SDS011;39866;48.638;-2.020;2022-11-20T09:06:49;34.28;;;6.18;;
53959;SDS011;39866;48.638;-2.020;2022-11-20T09:09:16;35.75;;;6.43;;
53959;SDS011;39866;48.638;-2.020;2022-11-20T09:11:43;31.45;;;6.18;;
53959;SDS011;39866;48.638;-2.020;2022-11-20T09:14:09;37.95;;;7.35;;
53959;SDS011;39866;48.638;-2.020;2022-11-20T09:16:34;34.40;;;6.32;;
53959;SDS011;39866;48.638;-2.020;2022-11-20T09:18:59;32.08;;;5.88;;
53959;SDS011;39866;48.638;-2.020;2022-11-20T09:21:24;27.90;;;5.30;;
53959;SDS011;39866;48.638;-2.020;2022-11-20T09:23:50;24.50;;;6.03;;
53959;SDS011;39866;48.638;-2.020;2022-11-20T09:26:15;36.60;;;6.63;;
53959;SDS011;39866;48.638;-2.020;2022-11-20T09:28:41;32.72;;;5.57;;
53959;SDS011;39866;48.638;-2.020;2022-11-20T09:31:07;35.67;;;6.88;;
53959;SDS011;39866;48.638;-2.020;2022-11-20T09:33:33;33.08;;;6.30;;
53959;SDS011;39866;48.638;-2.020;2022-11-20T09:35:59;32.28;;;5.93;;
53959;SDS011;39866;48.638;-2.020;2022-11-20T09:38:24;36.03;;;5.90;;
53959;SDS011;39866;48.638;-2.020;2022-11-20T09:40:52;26.00;;;5.82;;
53959;SDS011;39866;48.638;-2.020;2022-11-20T09:46:28;25.38;;;5.10;;
53959;SDS011;39866;48.638;-2.020;2022-11-20T09:49:22;31.65;;;5.57;;
53959;SDS011;39866;48.638;-2.020;2022-11-20T09:54:41;31.60;;;5.88;;
53959;SDS011;39866;48.638;-2.020;2022-11-20T09:57:14;32.50;;;5.65;;
53959;SDS011;39866;48.638;-2.020;2022-11-20T09:59:45;30.67;;;5.97;;
53959;SDS011;39866;48.638;-2.020;2022-11-20T10:07:37;31.10;;;5.07;;
53959;SDS011;39866;48.638;-2.020;2022-11-20T10:10:30;32.58;;;5.68;;
53959;SDS011;39866;48.638;-2.020;2022-11-20T10:15:53;31.75;;;5.88;;
53959;SDS011;39866;48.638;-2.020;2022-11-20T10:26:59;35.22;;;5.68;;
53959;SDS011;39866;48.638;-2.020;2022-11-20T10:29:48;33.40;;;6.38;;
53959;SDS011;39866;48.638;-2.020;2022-11-20T10:32:28;28.60;;;5.22;;
53959;SDS011;39866;48.638;-2.020;2022-11-20T10:35:03;29.05;;;6.10;;
53959;SDS011;39866;48.638;-2.020;2022-11-20T10:40:05;37.38;;;5.72;;
53959;SDS011;39866;48.638;-2.020;2022-11-20T10:43:02;34.47;;;5.85;;
53959;SDS011;39866;48.638;-2.020;2022-11-20T10:51:08;34.22;;;6.15;;
53959;SDS011;39866;48.638;-2.020;2022-11-20T11:02:20;22.73;;;4.07;;
53959;SDS011;39866;48.638;-2.020;2022-11-20T11:04:49;22.88;;;4.45;;
53959;SDS011;39866;48.638;-2.020;2022-11-20T11:09:46;27.25;;;4.10;;
53959;SDS011;39866;48.638;-2.020;2022-11-20T11:12:14;27.63;;;4.95;;
53959;SDS011;39866;48.638;-2.020;2022-11-20T11:14:47;29.80;;;5.57;;
53959;SDS011;39866;48.638;-2.020;2022-11-20T11:17:26;29.00;;;4.93;;
53959;SDS011;39866;48.638;-2.020;2022-11-20T11:22:46;22.92;;;4.97;;
53959;SDS011;39866;48.638;-2.020;2022-11-20T11:27:51;25.73;;;4.75;;
53959;SDS011;39866;48.638;-2.020;2022-11-20T11:30:19;31.05;;;5.38;;
53959;SDS011;39866;48.638;-2.020;2022-11-20T11:32:45;34.80;;;6.03;;
53959;SDS011;39866;48.638;-2.020;2022-11-20T11:35:21;24.90;;;4.97;;
53959;SDS011;39866;48.638;-2.020;2022-11-20T11:37:48;29.60;;;4.90;;
53959;SDS011;39866;48.638;-2.020;2022-11-20T11:40:16;27.75;;;5.15;;
53959;SDS011;39866;48.638;-2.020;2022-11-20T11:42:44;27.38;;;4.85;;
53959;SDS011;39866;48.638;-2.020;2022-11-20T11:45:15;22.05;;;4.28;;
53959;SDS011;39866;48.638;-2.020;2022-11-20T11:53:29;23.73;;;4.82;;
53959;SDS011;39866;48.638;-2.020;2022-11-20T11:55:49;26.45;;;4.97;;
53959;SDS011;39866;48.638;-2.020;2022-11-20T11:59:03;25.70;;;4.88;;
53959;SDS011;39866;48.638;-2.020;2022-11-20T12:04:00;28.67;;;5.25;;
53959;SDS011;39866;48.638;-2.020;2022-11-20T12:06:32;27.52;;;4.65;;
53959;SDS011;39866;48.638;-2.020;2022-11-20T12:14:27;34.08;;;5.68;;
53959;SDS011;39866;48.638;-2.020;2022-11-20T12:17:00;23.42;;;4.63;;
53959;SDS011;39866;48.638;-2.020;2022-11-20T12:19:26;26.80;;;4.50;;
53959;SDS011;39866;48.638;-2.020;2022-11-20T12:24:48;26.92;;;4.40;;
53959;SDS011;39866;48.638;-2.020;2022-11-20T12:27:40;36.28;;;5.95;;
53959;SDS011;39866;48.638;-2.020;2022-11-20T12:30:09;26.90;;;5.72;;
53959;SDS011;39866;48.638;-2.020;2022-11-20T12:38:26;24.42;;;4.85;;
53959;SDS011;39866;48.638;-2.020;2022-11-20T12:44:29;26.70;;;5.10;;
53959;SDS011;39866;48.638;-2.020;2022-11-20T12:53:28;24.67;;;5.07;;
53959;SDS011;39866;48.638;-2.020;2022-11-20T12:56:11;33.28;;;5.45;;
53959;SDS011;39866;48.638;-2.020;2022-11-20T12:59:03;28.65;;;5.28;;
53959;SDS011;39866;48.638;-2.020;2022-11-20T13:01:52;25.95;;;5.15;;
53959;SDS011;39866;48.638;-2.020;2022-11-20T13:07:13;29.92;;;5.57;;
53959;SDS011;39866;48.638;-2.020;2022-11-20T13:09:46;30.13;;;5.88;;
53959;SDS011;39866;48.638;-2.020;2022-11-20T13:15:04;24.33;;;4.30;;
53959;SDS011;39866;48.638;-2.020;2022-11-20T13:20:19;23.67;;;3.83;;
53959;SDS011;39866;48.638;-2.020;2022-11-20T13:22:46;23.70;;;4.00;;
53959;SDS011;39866;48.638;-2.020;2022-11-20T13:25:26;21.38;;;4.20;;
53959;SDS011;39866;48.638;-2.020;2022-11-20T13:27:55;18.00;;;3.95;;
53959;SDS011;39866;48.638;-2.020;2022-11-20T13:30:22;23.27;;;4.32;;
53959;SDS011;39866;48.638;-2.020;2022-11-20T13:32:50;24.48;;;4.47;;
53959;SDS011;39866;48.638;-2.020;2022-11-20T13:40:27;23.10;;;4.63;;
53959;SDS011;39866;48.638;-2.020;2022-11-20T13:43:00;27.02;;;4.80;;
53959;SDS011;39866;48.638;-2.020;2022-11-20T13:45:30;34.67;;;5.57;;
53959;SDS011;39866;48.638;-2.020;2022-11-20T13:47:57;32.38;;;4.97;;
53959;SDS011;39866;48.638;-2.020;2022-11-20T13:53:04;24.65;;;4.57;;
53959;SDS011;39866;48.638;-2.020;2022-11-20T14:01:14;24.35;;;4.63;;
53959;SDS011;39866;48.638;-2.020;2022-11-20T14:03:42;27.60;;;4.28;;
53959;SDS011;39866;48.638;-2.020;2022-11-20T14:06:12;24.45;;;4.30;;
53959;SDS011;39866;48.638;-2.020;2022-11-20T14:08:52;22.30;;;4.43;;
53959;SDS011;39866;48.638;-2.020;2022-11-20T14:11:19;27.90;;;5.47;;
53959;SDS011;39866;48.638;-2.020;2022-11-20T14:14:46;21.88;;;3.95;;
53959;SDS011;39866;48.638;-2.020;2022-11-20T14:16:47;23.23;;;4.45;;
53959;SDS011;39866;48.638;-2.020;2022-11-20T14:21:44;25.60;;;4.90;;
53959;SDS011;39866;48.638;-2.020;2022-11-20T14:24:30;22.77;;;4.55;;
53959;SDS011;39866;48.638;-2.020;2022-11-20T14:26:55;21.50;;;4.47;;
53959;SDS011;39866;48.638;-2.020;2022-11-20T14:29:26;22.38;;;4.32;;
53959;SDS011;39866;48.638;-2.020;2022-11-20T14:31:54;28.15;;;4.80;;
53959;SDS011;39866;48.638;-2.020;2022-11-20T14:34:25;25.05;;;4.88;;
53959;SDS011;39866;48.638;-2.020;2022-11-20T14:36:57;24.08;;;4.22;;
53959;SDS011;39866;48.638;-2.020;2022-11-20T14:39:27;25.33;;;4.57;;
53959;SDS011;39866;48.638;-2.020;2022-11-20T14:41:56;24.33;;;4.40;;
53959;SDS011;39866;48.638;-2.020;2022-11-20T14:44:23;24.75;;;4.22;;
53959;SDS011;39866;48.638;-2.020;2022-11-20T14:46:54;26.27;;;4.63;;
53959;SDS011;39866;48.638;-2.020;2022-11-20T14:49:20;25.77;;;4.93;;
53959;SDS011;39866;48.638;-2.020;2022-11-20T14:51:46;22.65;;;4.35;;
53959;SDS011;39866;48.638;-2.020;2022-11-20T14:56:42;28.60;;;5.03;;
53959;SDS011;39866;48.638;-2.020;2022-11-20T14:59:22;25.55;;;5.13;;
53959;SDS011;39866;48.638;-2.020;2022-11-20T15:02:05;25.83;;;4.38;;
53959;SDS011;39866;48.638;-2.020;2022-11-20T15:04:44;24.10;;;4.30;;
53959;SDS011;39866;48.638;-2.020;2022-11-20T15:07:22;26.17;;;5.28;;
53959;SDS011;39866;48.638;-2.020;2022-11-20T15:09:58;23.25;;;5.10;;
53959;SDS011;39866;48.638;-2.020;2022-11-20T15:12:25;26.13;;;5.25;;
53959;SDS011;39866;48.638;-2.020;2022-11-20T15:14:50;24.77;;;5.15;;
53959;SDS011;39866;48.638;-2.020;2022-11-20T15:17:15;24.13;;;4.63;;
53959;SDS011;39866;48.638;-2.020;2022-11-20T15:19:41;30.80;;;5.47;;
53959;SDS011;39866;48.638;-2.020;2022-11-20T15:22:08;29.63;;;4.97;;
53959;SDS011;39866;48.638;-2.020;2022-11-20T15:24:43;22.17;;;4.82;;
53959;SDS011;39866;48.638;-2.020;2022-11-20T15:27:09;25.02;;;4.78;;
53959;SDS011;39866;48.638;-2.020;2022-11-20T15:29:35;25.50;;;4.70;;
53959;SDS011;39866;48.638;-2.020;2022-11-20T15:32:00;18.75;;;4.20;;
53959;SDS011;39866;48.638;-2.020;2022-11-20T15:34:26;23.48;;;4.90;;
53959;SDS011;39866;48.638;-2.020;2022-11-20T15:36:52;24.40;;;4.50;;
53959;SDS011;39866;48.638;-2.020;2022-11-20T15:39:19;26.38;;;5.80;;
53959;SDS011;39866;48.638;-2.020;2022-11-20T15:41:44;24.10;;;4.75;;
53959;SDS011;39866;48.638;-2.020;2022-11-20T15:44:10;24.08;;;4.80;;
53959;SDS011;39866;48.638;-2.020;2022-11-20T15:46:36;27.58;;;4.55;;
53959;SDS011;39866;48.638;-2.020;2022-11-20T15:49:05;19.92;;;4.43;;
53959;SDS011;39866;48.638;-2.020;2022-11-20T15:51:31;19.15;;;4.47;;
53959;SDS011;39866;48.638;-2.020;2022-11-20T15:53:57;18.20;;;4.68;;
53959;SDS011;39866;48.638;-2.020;2022-11-20T15:56:23;26.23;;;5.30;;
53959;SDS011;39866;48.638;-2.020;2022-11-20T15:58:49;20.02;;;4.70;;
53959;SDS011;39866;48.638;-2.020;2022-11-20T16:01:15;26.05;;;5.15;;
53959;SDS011;39866;48.638;-2.020;2022-11-20T16:03:42;21.15;;;4.85;;
53959;SDS011;39866;48.638;-2.020;2022-11-20T16:06:08;23.83;;;4.25;;
53959;SDS011;39866;48.638;-2.020;2022-11-20T16:08:33;20.02;;;4.68;;
53959;SDS011;39866;48.638;-2.020;2022-11-20T16:10:59;21.77;;;5.03;;
53959;SDS011;39866;48.638;-2.020;2022-11-20T16:13:24;21.75;;;4.95;;
53959;SDS011;39866;48.638;-2.020;2022-11-20T16:18:44;26.08;;;6.00;;
53959;SDS011;39866;48.638;-2.020;2022-11-20T16:21:10;19.15;;;4.35;;
53959;SDS011;39866;48.638;-2.020;2022-11-20T16:23:37;20.77;;;4.63;;
53959;SDS011;39866;48.638;-2.020;2022-11-20T16:26:08;21.73;;;4.40;;
53959;SDS011;39866;48.638;-2.020;2022-11-20T16:28:38;19.30;;;4.53;;